sensor_id;sensor_type;location;lat;lon;timestamp;pressure;altitude;pressure_sealevel;temperature;humidity
59073;BME280;44859;51.934;15.554;2023-04-25T00:05:20;98794.23;;;6.91;78.58
59073;BME280;44859;51.934;15.554;2023-04-25T00:08:09;98792.33;;;6.87;78.80
59073;BME280;44859;51.934;15.554;2023-04-25T00:10:40;98793.71;;;6.88;78.89
59073;BME280;44859;51.934;15.554;2023-04-25T00:13:11;98789.90;;;6.87;78.92
59073;BME280;44859;51.934;15.554;2023-04-25T00:15:46;98793.97;;;6.82;79.13
59073;BME280;44859;51.934;15.554;2023-04-25T00:18:50;98793.44;;;6.79;79.00
59073;BME280;44859;51.934;15.554;2023-04-25T00:21:52;98800.50;;;6.74;79.80
59073;BME280;44859;51.934;15.554;2023-04-25T00:24:32;98798.61;;;6.70;79.73
59073;BME280;44859;51.934;15.554;2023-04-25T00:27:22;98801.19;;;6.67;80.53
59073;BME280;44859;51.934;15.554;2023-04-25T00:30:04;98799.77;;;6.64;80.34
59073;BME280;44859;51.934;15.554;2023-04-25T00:32:41;98805.73;;;6.63;80.24
59073;BME280;44859;51.934;15.554;2023-04-25T00:35:18;98803.04;;;6.61;80.52
59073;BME280;44859;51.934;15.554;2023-04-25T00:38:10;98801.70;;;6.60;80.74
59073;BME280;44859;51.934;15.554;2023-04-25T00:40:59;98802.61;;;6.62;80.41
59073;BME280;44859;51.934;15.554;2023-04-25T00:43:39;98806.00;;;6.65;80.92
59073;BME280;44859;51.934;15.554;2023-04-25T00:49:06;98795.02;;;6.68;80.54
59073;BME280;44859;51.934;15.554;2023-04-25T00:52:15;98796.16;;;6.70;80.62
59073;BME280;44859;51.934;15.554;2023-04-25T00:57:39;98796.59;;;6.69;80.97
59073;BME280;44859;51.934;15.554;2023-04-25T01:00:50;98794.97;;;6.69;80.84
59073;BME280;44859;51.934;15.554;2023-04-25T01:03:49;98798.43;;;6.70;81.15
59073;BME280;44859;51.934;15.554;2023-04-25T01:09:26;98792.09;;;6.71;81.61
59073;BME280;44859;51.934;15.554;2023-04-25T01:12:07;98787.88;;;6.71;81.60
59073;BME280;44859;51.934;15.554;2023-04-25T01:14:38;98788.39;;;6.72;81.47
59073;BME280;44859;51.934;15.554;2023-04-25T01:17:18;98789.64;;;6.71;81.91
59073;BME280;44859;51.934;15.554;2023-04-25T01:20:12;98785.77;;;6.68;81.83
59073;BME280;44859;51.934;15.554;2023-04-25T01:22:45;98782.31;;;6.64;81.99
59073;BME280;44859;51.934;15.554;2023-04-25T01:25:29;98789.73;;;6.59;82.01
59073;BME280;44859;51.934;15.554;2023-04-25T01:28:00;98788.56;;;6.54;82.24
59073;BME280;44859;51.934;15.554;2023-04-25T01:30:31;98785.27;;;6.49;82.29
59073;BME280;44859;51.934;15.554;2023-04-25T01:33:00;98788.01;;;6.43;82.26
59073;BME280;44859;51.934;15.554;2023-04-25T01:35:56;98792.73;;;6.39;82.47
59073;BME280;44859;51.934;15.554;2023-04-25T01:41:49;98791.29;;;6.33;83.16
59073;BME280;44859;51.934;15.554;2023-04-25T01:44:27;98793.18;;;6.30;83.12
59073;BME280;44859;51.934;15.554;2023-04-25T01:47:03;98791.06;;;6.27;83.35
59073;BME280;44859;51.934;15.554;2023-04-25T01:49:44;98794.05;;;6.22;83.42
59073;BME280;44859;51.934;15.554;2023-04-25T01:52:15;98792.68;;;6.18;83.60
59073;BME280;44859;51.934;15.554;2023-04-25T01:54:44;98793.88;;;6.15;83.87
59073;BME280;44859;51.934;15.554;2023-04-25T01:57:13;98794.90;;;6.12;83.55
59073;BME280;44859;51.934;15.554;2023-04-25T02:03:14;98793.69;;;6.04;84.03
59073;BME280;44859;51.934;15.554;2023-04-25T02:05:45;98792.90;;;6.02;84.02
59073;BME280;44859;51.934;15.554;2023-04-25T02:08:22;98797.17;;;6.00;84.23
59073;BME280;44859;51.934;15.554;2023-04-25T02:10:51;98798.51;;;5.97;84.08
59073;BME280;44859;51.934;15.554;2023-04-25T02:13:37;98796.73;;;5.93;84.01
59073;BME280;44859;51.934;15.554;2023-04-25T02:16:19;98799.36;;;5.89;84.33
59073;BME280;44859;51.934;15.554;2023-04-25T02:18:54;98796.92;;;5.86;84.23
59073;BME280;44859;51.934;15.554;2023-04-25T02:21:28;98795.15;;;5.82;84.05
59073;BME280;44859;51.934;15.554;2023-04-25T02:24:21;98799.92;;;5.81;84.34
59073;BME280;44859;51.934;15.554;2023-04-25T02:26:53;98794.38;;;5.80;84.06
59073;BME280;44859;51.934;15.554;2023-04-25T02:29:35;98793.92;;;5.79;84.42
59073;BME280;44859;51.934;15.554;2023-04-25T02:32:13;98793.27;;;5.78;84.22
59073;BME280;44859;51.934;15.554;2023-04-25T02:35:25;98797.96;;;5.78;84.37
59073;BME280;44859;51.934;15.554;2023-04-25T02:38:02;98794.70;;;5.77;84.48
59073;BME280;44859;51.934;15.554;2023-04-25T02:41:12;98794.14;;;5.74;84.46
59073;BME280;44859;51.934;15.554;2023-04-25T02:44:20;98795.92;;;5.69;84.30
59073;BME280;44859;51.934;15.554;2023-04-25T02:46:57;98794.16;;;5.66;84.72
59073;BME280;44859;51.934;15.554;2023-04-25T02:49:35;98794.95;;;5.63;84.70
59073;BME280;44859;51.934;15.554;2023-04-25T02:52:09;98795.05;;;5.65;84.92
59073;BME280;44859;51.934;15.554;2023-04-25T02:55:00;98791.67;;;5.63;84.84
59073;BME280;44859;51.934;15.554;2023-04-25T02:57:32;98792.34;;;5.59;84.90
59073;BME280;44859;51.934;15.554;2023-04-25T03:00:26;98789.35;;;5.56;84.93
59073;BME280;44859;51.934;15.554;2023-04-25T03:02:58;98787.84;;;5.51;85.34
59073;BME280;44859;51.934;15.554;2023-04-25T03:05:33;98787.17;;;5.46;85.30
59073;BME280;44859;51.934;15.554;2023-04-25T03:11:11;98779.80;;;5.39;85.40
59073;BME280;44859;51.934;15.554;2023-04-25T03:13:47;98784.55;;;5.38;85.03
59073;BME280;44859;51.934;15.554;2023-04-25T03:16:59;98781.46;;;5.33;85.30
59073;BME280;44859;51.934;15.554;2023-04-25T03:19:34;98781.13;;;5.29;85.29
59073;BME280;44859;51.934;15.554;2023-04-25T03:22:21;98783.73;;;5.25;85.41
59073;BME280;44859;51.934;15.554;2023-04-25T03:25:19;98776.94;;;5.21;85.42
59073;BME280;44859;51.934;15.554;2023-04-25T03:27:48;98779.16;;;5.18;85.40
59073;BME280;44859;51.934;15.554;2023-04-25T03:30:20;98777.42;;;5.14;85.51
59073;BME280;44859;51.934;15.554;2023-04-25T03:32:49;98776.27;;;5.13;85.48
59073;BME280;44859;51.934;15.554;2023-04-25T03:35:21;98779.12;;;5.11;85.56
59073;BME280;44859;51.934;15.554;2023-04-25T03:37:56;98781.79;;;5.10;85.66
59073;BME280;44859;51.934;15.554;2023-04-25T03:40:54;98787.81;;;5.11;85.58
59073;BME280;44859;51.934;15.554;2023-04-25T03:43:26;98781.19;;;5.11;85.53
59073;BME280;44859;51.934;15.554;2023-04-25T03:46:19;98781.30;;;5.09;85.67
59073;BME280;44859;51.934;15.554;2023-04-25T03:49:07;98779.55;;;5.04;85.76
59073;BME280;44859;51.934;15.554;2023-04-25T03:52:02;98783.22;;;5.04;85.91
59073;BME280;44859;51.934;15.554;2023-04-25T03:54:35;98786.23;;;5.03;85.65
59073;BME280;44859;51.934;15.554;2023-04-25T03:57:44;98786.17;;;5.00;86.03
59073;BME280;44859;51.934;15.554;2023-04-25T04:00:38;98784.27;;;4.96;85.91
59073;BME280;44859;51.934;15.554;2023-04-25T04:06:29;98784.40;;;4.88;86.14
59073;BME280;44859;51.934;15.554;2023-04-25T04:09:06;98785.03;;;4.86;86.50
59073;BME280;44859;51.934;15.554;2023-04-25T04:12:19;98788.37;;;4.81;86.68
59073;BME280;44859;51.934;15.554;2023-04-25T04:15:12;98789.84;;;4.79;86.64
59073;BME280;44859;51.934;15.554;2023-04-25T04:17:55;98787.70;;;4.80;86.87
59073;BME280;44859;51.934;15.554;2023-04-25T04:21:52;98792.23;;;4.80;86.92
59073;BME280;44859;51.934;15.554;2023-04-25T04:27:21;98799.31;;;4.81;87.13
59073;BME280;44859;51.934;15.554;2023-04-25T04:30:10;98796.46;;;4.82;87.28
59073;BME280;44859;51.934;15.554;2023-04-25T04:33:04;98798.16;;;4.83;87.23
59073;BME280;44859;51.934;15.554;2023-04-25T04:35:37;98799.28;;;4.86;87.26
59073;BME280;44859;51.934;15.554;2023-04-25T04:38:26;98802.35;;;4.96;87.09
59073;BME280;44859;51.934;15.554;2023-04-25T04:41:18;98801.82;;;5.05;87.12
59073;BME280;44859;51.934;15.554;2023-04-25T04:46:50;98803.63;;;5.24;86.80
59073;BME280;44859;51.934;15.554;2023-04-25T04:49:40;98802.62;;;5.27;86.52
59073;BME280;44859;51.934;15.554;2023-04-25T04:52:10;98797.96;;;5.30;86.51
59073;BME280;44859;51.934;15.554;2023-04-25T04:54:48;98806.05;;;5.32;86.37
59073;BME280;44859;51.934;15.554;2023-04-25T04:57:46;98808.98;;;5.33;86.22
59073;BME280;44859;51.934;15.554;2023-04-25T05:00:39;98809.66;;;5.33;86.25
59073;BME280;44859;51.934;15.554;2023-04-25T05:03:17;98808.26;;;5.33;86.07
59073;BME280;44859;51.934;15.554;2023-04-25T05:06:12;98802.33;;;5.34;86.26
59073;BME280;44859;51.934;15.554;2023-04-25T05:11:59;98807.39;;;5.37;86.15
59073;BME280;44859;51.934;15.554;2023-04-25T05:14:29;98804.73;;;5.38;85.82
59073;BME280;44859;51.934;15.554;2023-04-25T05:17:13;98803.22;;;5.41;85.91
59073;BME280;44859;51.934;15.554;2023-04-25T05:20:31;98802.41;;;5.44;85.65
59073;BME280;44859;51.934;15.554;2023-04-25T05:23:27;98800.26;;;5.50;85.39
59073;BME280;44859;51.934;15.554;2023-04-25T05:26:03;98800.79;;;5.53;84.87
59073;BME280;44859;51.934;15.554;2023-04-25T05:28:42;98800.71;;;5.59;84.91
59073;BME280;44859;51.934;15.554;2023-04-25T05:31:35;98800.98;;;5.65;84.84
59073;BME280;44859;51.934;15.554;2023-04-25T05:34:47;98801.05;;;5.71;84.83
59073;BME280;44859;51.934;15.554;2023-04-25T05:37:18;98798.19;;;5.88;84.39
59073;BME280;44859;51.934;15.554;2023-04-25T05:39:59;98799.53;;;6.06;84.26
59073;BME280;44859;51.934;15.554;2023-04-25T05:42:35;98801.37;;;6.26;83.71
59073;BME280;44859;51.934;15.554;2023-04-25T05:45:04;98801.17;;;6.52;83.23
59073;BME280;44859;51.934;15.554;2023-04-25T05:47:54;98801.64;;;6.58;82.19
59073;BME280;44859;51.934;15.554;2023-04-25T05:50:23;98801.67;;;6.60;82.15
59073;BME280;44859;51.934;15.554;2023-04-25T05:52:51;98803.77;;;6.67;82.12
59073;BME280;44859;51.934;15.554;2023-04-25T05:55:36;98806.05;;;6.74;81.68
59073;BME280;44859;51.934;15.554;2023-04-25T06:01:29;98802.82;;;6.91;80.53
59073;BME280;44859;51.934;15.554;2023-04-25T06:03:58;98805.14;;;6.90;80.23
59073;BME280;44859;51.934;15.554;2023-04-25T06:06:27;98804.75;;;6.94;80.61
59073;BME280;44859;51.934;15.554;2023-04-25T06:08:59;98813.45;;;7.16;80.34
59073;BME280;44859;51.934;15.554;2023-04-25T06:11:27;98797.16;;;7.34;79.92
59073;BME280;44859;51.934;15.554;2023-04-25T06:14:16;98803.70;;;7.39;79.25
59073;BME280;44859;51.934;15.554;2023-04-25T06:16:45;98805.60;;;7.50;79.00
59073;BME280;44859;51.934;15.554;2023-04-25T06:19:14;98806.45;;;7.50;78.19
59073;BME280;44859;51.934;15.554;2023-04-25T06:21:52;98808.73;;;7.50;78.09
59073;BME280;44859;51.934;15.554;2023-04-25T06:24:21;98805.94;;;7.63;78.44
59073;BME280;44859;51.934;15.554;2023-04-25T06:26:50;98809.61;;;7.77;77.64
59073;BME280;44859;51.934;15.554;2023-04-25T06:29:18;98803.04;;;7.88;77.45
59073;BME280;44859;51.934;15.554;2023-04-25T06:31:47;98800.47;;;7.98;76.89
59073;BME280;44859;51.934;15.554;2023-04-25T06:34:19;98805.52;;;7.91;76.56
59073;BME280;44859;51.934;15.554;2023-04-25T06:36:54;98807.08;;;7.98;76.04
59073;BME280;44859;51.934;15.554;2023-04-25T06:42:31;98803.34;;;8.41;75.85
59073;BME280;44859;51.934;15.554;2023-04-25T06:45:00;98801.84;;;8.78;75.69
59073;BME280;44859;51.934;15.554;2023-04-25T06:47:34;98799.09;;;9.07;74.52
59073;BME280;44859;51.934;15.554;2023-04-25T06:50:03;98803.03;;;9.12;73.93
59073;BME280;44859;51.934;15.554;2023-04-25T06:52:52;98800.73;;;9.12;73.48
59073;BME280;44859;51.934;15.554;2023-04-25T06:55:41;98799.86;;;8.88;72.46
59073;BME280;44859;51.934;15.554;2023-04-25T06:58:13;98806.86;;;8.60;72.10
59073;BME280;44859;51.934;15.554;2023-04-25T07:00:46;98802.92;;;8.52;73.02
59073;BME280;44859;51.934;15.554;2023-04-25T07:03:44;98806.81;;;8.55;73.67
59073;BME280;44859;51.934;15.554;2023-04-25T07:06:13;98806.76;;;8.49;72.88
59073;BME280;44859;51.934;15.554;2023-04-25T07:09:00;98799.31;;;8.41;73.06
59073;BME280;44859;51.934;15.554;2023-04-25T07:11:39;98802.25;;;8.33;73.16
59073;BME280;44859;51.934;15.554;2023-04-25T07:14:28;98803.44;;;8.27;72.69
59073;BME280;44859;51.934;15.554;2023-04-25T07:16:56;98808.08;;;8.06;72.96
59073;BME280;44859;51.934;15.554;2023-04-25T07:19:25;98804.22;;;8.02;73.15
59073;BME280;44859;51.934;15.554;2023-04-25T07:21:55;98798.95;;;8.06;72.94
59073;BME280;44859;51.934;15.554;2023-04-25T07:24:23;98803.67;;;8.09;73.55
59073;BME280;44859;51.934;15.554;2023-04-25T07:26:51;98805.11;;;8.25;73.55
59073;BME280;44859;51.934;15.554;2023-04-25T07:29:31;98805.80;;;8.48;73.85
59073;BME280;44859;51.934;15.554;2023-04-25T07:32:09;98804.69;;;8.68;73.23
59073;BME280;44859;51.934;15.554;2023-04-25T07:34:41;98802.45;;;8.77;72.49
59073;BME280;44859;51.934;15.554;2023-04-25T07:37:09;98810.45;;;8.80;72.67
59073;BME280;44859;51.934;15.554;2023-04-25T07:39:41;98806.80;;;8.86;71.96
59073;BME280;44859;51.934;15.554;2023-04-25T07:42:13;98809.83;;;8.79;72.00
59073;BME280;44859;51.934;15.554;2023-04-25T07:45:02;98819.43;;;8.70;71.49
59073;BME280;44859;51.934;15.554;2023-04-25T07:47:34;98820.61;;;8.84;71.17
59073;BME280;44859;51.934;15.554;2023-04-25T07:50:03;98819.39;;;8.83;70.53
59073;BME280;44859;51.934;15.554;2023-04-25T07:52:32;98819.33;;;8.69;70.24
59073;BME280;44859;51.934;15.554;2023-04-25T07:55:24;98815.77;;;8.60;70.28
59073;BME280;44859;51.934;15.554;2023-04-25T07:58:16;98812.30;;;8.73;70.46
59073;BME280;44859;51.934;15.554;2023-04-25T08:01:05;98816.05;;;8.96;70.51
59073;BME280;44859;51.934;15.554;2023-04-25T08:03:33;98813.12;;;9.10;70.39
59073;BME280;44859;51.934;15.554;2023-04-25T08:06:02;98816.15;;;9.12;69.21
59073;BME280;44859;51.934;15.554;2023-04-25T08:08:35;98814.39;;;9.15;69.76
59073;BME280;44859;51.934;15.554;2023-04-25T08:11:04;98817.00;;;9.16;69.30
59073;BME280;44859;51.934;15.554;2023-04-25T08:13:38;98822.38;;;9.17;69.15
59073;BME280;44859;51.934;15.554;2023-04-25T08:16:07;98819.80;;;9.13;69.39
59073;BME280;44859;51.934;15.554;2023-04-25T08:18:35;98824.50;;;9.10;68.68
59073;BME280;44859;51.934;15.554;2023-04-25T08:21:43;98822.75;;;9.10;68.60
59073;BME280;44859;51.934;15.554;2023-04-25T08:24:11;98826.05;;;9.08;68.04
59073;BME280;44859;51.934;15.554;2023-04-25T08:26:40;98827.56;;;9.09;67.95
59073;BME280;44859;51.934;15.554;2023-04-25T08:29:09;98826.11;;;9.22;67.78
59073;BME280;44859;51.934;15.554;2023-04-25T08:31:59;98822.63;;;9.37;67.69
59073;BME280;44859;51.934;15.554;2023-04-25T08:34:36;98820.61;;;9.67;67.25
59073;BME280;44859;51.934;15.554;2023-04-25T08:37:16;98818.98;;;9.83;66.68
59073;BME280;44859;51.934;15.554;2023-04-25T08:39:47;98821.36;;;9.81;66.24
59073;BME280;44859;51.934;15.554;2023-04-25T08:42:21;98823.19;;;9.80;65.99
59073;BME280;44859;51.934;15.554;2023-04-25T08:44:53;98827.80;;;9.79;66.12
59073;BME280;44859;51.934;15.554;2023-04-25T08:47:43;98830.98;;;9.73;65.76
59073;BME280;44859;51.934;15.554;2023-04-25T08:50:14;98834.27;;;9.67;66.05
59073;BME280;44859;51.934;15.554;2023-04-25T08:52:50;98835.98;;;9.74;66.15
59073;BME280;44859;51.934;15.554;2023-04-25T08:55:23;98833.17;;;9.77;65.72
59073;BME280;44859;51.934;15.554;2023-04-25T08:58:33;98837.58;;;9.71;65.79
59073;BME280;44859;51.934;15.554;2023-04-25T09:01:08;98838.50;;;9.93;65.05
59073;BME280;44859;51.934;15.554;2023-04-25T09:03:37;98845.04;;;10.21;64.78
59073;BME280;44859;51.934;15.554;2023-04-25T09:06:47;98839.20;;;10.24;63.84
59073;BME280;44859;51.934;15.554;2023-04-25T09:09:16;98840.55;;;10.20;63.94
59073;BME280;44859;51.934;15.554;2023-04-25T09:11:44;98845.27;;;10.03;63.60
59073;BME280;44859;51.934;15.554;2023-04-25T09:14:38;98848.55;;;9.84;63.21
59073;BME280;44859;51.934;15.554;2023-04-25T09:17:55;98856.59;;;9.66;64.10
59073;BME280;44859;51.934;15.554;2023-04-25T09:20:41;98865.70;;;9.58;64.20
59073;BME280;44859;51.934;15.554;2023-04-25T09:23:52;98867.91;;;9.41;63.89
59073;BME280;44859;51.934;15.554;2023-04-25T09:26:35;98876.42;;;9.15;63.58
59073;BME280;44859;51.934;15.554;2023-04-25T09:29:49;98873.92;;;9.00;63.98
59073;BME280;44859;51.934;15.554;2023-04-25T09:32:44;98875.10;;;9.01;65.01
59073;BME280;44859;51.934;15.554;2023-04-25T09:35:37;98876.90;;;9.07;64.84
59073;BME280;44859;51.934;15.554;2023-04-25T09:38:10;98880.02;;;9.10;64.83
59073;BME280;44859;51.934;15.554;2023-04-25T09:40:42;98877.38;;;9.29;64.91
59073;BME280;44859;51.934;15.554;2023-04-25T09:43:20;98875.67;;;9.40;64.38
59073;BME280;44859;51.934;15.554;2023-04-25T09:46:00;98879.96;;;9.36;64.08
59073;BME280;44859;51.934;15.554;2023-04-25T09:48:50;98877.36;;;9.32;64.30
59073;BME280;44859;51.934;15.554;2023-04-25T09:51:26;98882.04;;;9.30;64.30
59073;BME280;44859;51.934;15.554;2023-04-25T09:53:57;98882.84;;;9.19;63.81
59073;BME280;44859;51.934;15.554;2023-04-25T09:56:37;98880.86;;;9.23;64.33
59073;BME280;44859;51.934;15.554;2023-04-25T09:59:12;98879.04;;;9.40;64.11
59073;BME280;44859;51.934;15.554;2023-04-25T10:01:52;98880.60;;;9.52;64.13
59073;BME280;44859;51.934;15.554;2023-04-25T10:04:24;98887.11;;;9.57;64.45
59073;BME280;44859;51.934;15.554;2023-04-25T10:06:57;98885.06;;;9.65;64.90
59073;BME280;44859;51.934;15.554;2023-04-25T10:09:32;98887.59;;;9.58;64.05
59073;BME280;44859;51.934;15.554;2023-04-25T10:12:03;98889.61;;;9.42;64.10
59073;BME280;44859;51.934;15.554;2023-04-25T10:14:32;98895.34;;;9.24;64.16
59073;BME280;44859;51.934;15.554;2023-04-25T10:17:01;98894.22;;;9.19;64.43
59073;BME280;44859;51.934;15.554;2023-04-25T10:19:51;98895.75;;;9.20;65.04
59073;BME280;44859;51.934;15.554;2023-04-25T10:22:32;98894.22;;;9.28;64.50
59073;BME280;44859;51.934;15.554;2023-04-25T10:25:02;98899.78;;;9.44;65.09
59073;BME280;44859;51.934;15.554;2023-04-25T10:27:53;98900.77;;;9.61;64.46
59073;BME280;44859;51.934;15.554;2023-04-25T10:30:21;98894.47;;;9.73;64.30
59073;BME280;44859;51.934;15.554;2023-04-25T10:32:50;98893.97;;;9.69;64.00
59073;BME280;44859;51.934;15.554;2023-04-25T10:35:30;98892.52;;;9.79;64.44
59073;BME280;44859;51.934;15.554;2023-04-25T10:38:03;98891.36;;;10.04;64.58
59073;BME280;44859;51.934;15.554;2023-04-25T10:40:33;98892.45;;;10.23;64.05
59073;BME280;44859;51.934;15.554;2023-04-25T10:46:25;98886.02;;;10.43;63.60
59073;BME280;44859;51.934;15.554;2023-04-25T10:48:56;98884.81;;;10.67;63.34
59073;BME280;44859;51.934;15.554;2023-04-25T10:51:36;98891.30;;;10.84;62.46
59073;BME280;44859;51.934;15.554;2023-04-25T10:54:23;98890.84;;;10.75;62.64
59073;BME280;44859;51.934;15.554;2023-04-25T10:56:54;98888.81;;;10.51;62.55
59073;BME280;44859;51.934;15.554;2023-04-25T10:59:24;98887.09;;;10.48;63.55
59073;BME280;44859;51.934;15.554;2023-04-25T11:01:53;98887.41;;;10.40;63.22
59073;BME280;44859;51.934;15.554;2023-04-25T11:04:32;98883.75;;;10.34;62.84
59073;BME280;44859;51.934;15.554;2023-04-25T11:07:10;98885.39;;;10.39;63.52
59073;BME280;44859;51.934;15.554;2023-04-25T11:09:44;98887.82;;;10.33;62.56
59073;BME280;44859;51.934;15.554;2023-04-25T11:12:14;98891.86;;;10.10;61.95
59073;BME280;44859;51.934;15.554;2023-04-25T11:14:44;98892.48;;;10.03;62.43
59073;BME280;44859;51.934;15.554;2023-04-25T11:17:13;98898.44;;;9.91;61.42
59073;BME280;44859;51.934;15.554;2023-04-25T11:19:42;98907.34;;;9.80;61.75
59073;BME280;44859;51.934;15.554;2023-04-25T11:22:12;98909.34;;;9.73;62.01
59073;BME280;44859;51.934;15.554;2023-04-25T11:24:40;98908.45;;;9.58;62.42
59073;BME280;44859;51.934;15.554;2023-04-25T11:27:15;98907.52;;;9.50;63.01
59073;BME280;44859;51.934;15.554;2023-04-25T11:30:18;98908.43;;;9.55;63.64
59073;BME280;44859;51.934;15.554;2023-04-25T11:32:56;98905.79;;;9.59;64.38
59073;BME280;44859;51.934;15.554;2023-04-25T11:35:26;98912.33;;;9.64;64.64
59073;BME280;44859;51.934;15.554;2023-04-25T11:38:01;98911.05;;;9.68;64.39
59073;BME280;44859;51.934;15.554;2023-04-25T11:40:41;98916.73;;;9.61;63.90
59073;BME280;44859;51.934;15.554;2023-04-25T11:43:09;98914.83;;;9.66;63.39
59073;BME280;44859;51.934;15.554;2023-04-25T11:45:38;98911.58;;;10.03;62.66
59073;BME280;44859;51.934;15.554;2023-04-25T11:48:15;98913.38;;;10.45;62.55
59073;BME280;44859;51.934;15.554;2023-04-25T11:50:45;98908.95;;;11.08;61.34
59073;BME280;44859;51.934;15.554;2023-04-25T11:53:17;98900.13;;;11.43;59.92
59073;BME280;44859;51.934;15.554;2023-04-25T11:56:01;98898.01;;;11.77;59.35
59073;BME280;44859;51.934;15.554;2023-04-25T11:59:11;98899.27;;;11.72;58.00
59073;BME280;44859;51.934;15.554;2023-04-25T12:01:46;98903.84;;;11.40;58.26
59073;BME280;44859;51.934;15.554;2023-04-25T12:04:20;98909.06;;;11.36;58.18
59073;BME280;44859;51.934;15.554;2023-04-25T12:06:52;98906.38;;;11.23;58.03
59073;BME280;44859;51.934;15.554;2023-04-25T12:09:34;98920.71;;;10.97;58.85
59073;BME280;44859;51.934;15.554;2023-04-25T12:12:09;98928.20;;;10.81;59.43
59073;BME280;44859;51.934;15.554;2023-04-25T12:14:38;98946.55;;;10.34;61.56
59073;BME280;44859;51.934;15.554;2023-04-25T12:17:06;98966.27;;;9.43;66.39
59073;BME280;44859;51.934;15.554;2023-04-25T12:19:38;98970.97;;;8.34;71.09
59073;BME280;44859;51.934;15.554;2023-04-25T12:22:32;98980.90;;;7.73;73.60
59073;BME280;44859;51.934;15.554;2023-04-25T12:25:56;98982.30;;;7.59;76.68
59073;BME280;44859;51.934;15.554;2023-04-25T12:28:47;98975.06;;;7.53;77.77
59073;BME280;44859;51.934;15.554;2023-04-25T12:31:45;98973.08;;;7.69;78.77
59073;BME280;44859;51.934;15.554;2023-04-25T12:34:14;98971.45;;;8.01;79.59
59073;BME280;44859;51.934;15.554;2023-04-25T12:36:44;98974.40;;;8.28;80.03
59073;BME280;44859;51.934;15.554;2023-04-25T12:39:16;98976.50;;;8.36;80.60
59073;BME280;44859;51.934;15.554;2023-04-25T12:41:45;98971.03;;;8.36;80.93
59073;BME280;44859;51.934;15.554;2023-04-25T12:44:16;98968.55;;;8.44;81.21
59073;BME280;44859;51.934;15.554;2023-04-25T12:46:45;98964.42;;;8.42;81.19
59073;BME280;44859;51.934;15.554;2023-04-25T12:49:17;98966.48;;;8.37;81.17
59073;BME280;44859;51.934;15.554;2023-04-25T12:51:46;98967.73;;;8.33;81.63
59073;BME280;44859;51.934;15.554;2023-04-25T12:54:19;98969.36;;;8.35;82.00
59073;BME280;44859;51.934;15.554;2023-04-25T12:56:47;98972.70;;;8.35;82.01
59073;BME280;44859;51.934;15.554;2023-04-25T12:59:19;98972.04;;;8.41;82.38
59073;BME280;44859;51.934;15.554;2023-04-25T13:01:51;98969.95;;;8.50;82.41
59073;BME280;44859;51.934;15.554;2023-04-25T13:04:41;98973.46;;;8.54;82.96
59073;BME280;44859;51.934;15.554;2023-04-25T13:07:09;98971.17;;;8.44;81.88
59073;BME280;44859;51.934;15.554;2023-04-25T13:09:52;98979.87;;;8.35;80.95
59073;BME280;44859;51.934;15.554;2023-04-25T13:12:20;98971.98;;;8.42;80.91
59073;BME280;44859;51.934;15.554;2023-04-25T13:14:49;98976.74;;;8.54;80.58
59073;BME280;44859;51.934;15.554;2023-04-25T13:17:17;98976.92;;;8.58;80.68
59073;BME280;44859;51.934;15.554;2023-04-25T13:19:49;98982.26;;;8.56;80.20
59073;BME280;44859;51.934;15.554;2023-04-25T13:22:18;98981.40;;;8.69;80.00
59073;BME280;44859;51.934;15.554;2023-04-25T13:24:48;98979.30;;;8.92;80.05
59073;BME280;44859;51.934;15.554;2023-04-25T13:27:16;98985.17;;;9.06;78.37
59073;BME280;44859;51.934;15.554;2023-04-25T13:29:54;98980.64;;;9.37;77.28
59073;BME280;44859;51.934;15.554;2023-04-25T13:32:23;98982.39;;;9.71;74.22
59073;BME280;44859;51.934;15.554;2023-04-25T13:34:54;98982.31;;;9.66;71.67
59073;BME280;44859;51.934;15.554;2023-04-25T13:37:24;98983.50;;;9.58;72.22
59073;BME280;44859;51.934;15.554;2023-04-25T13:39:53;98981.73;;;9.46;71.12
59073;BME280;44859;51.934;15.554;2023-04-25T13:42:23;98987.70;;;9.27;70.43
59073;BME280;44859;51.934;15.554;2023-04-25T13:44:52;98987.69;;;9.08;69.49
59073;BME280;44859;51.934;15.554;2023-04-25T13:47:22;98990.25;;;8.96;70.21
59073;BME280;44859;51.934;15.554;2023-04-25T13:49:53;98994.83;;;8.99;70.17
59073;BME280;44859;51.934;15.554;2023-04-25T13:52:29;98999.77;;;8.95;70.30
59073;BME280;44859;51.934;15.554;2023-04-25T13:55:00;99002.34;;;8.90;70.04
59073;BME280;44859;51.934;15.554;2023-04-25T13:57:31;99004.02;;;8.82;70.12
59073;BME280;44859;51.934;15.554;2023-04-25T14:00:07;99006.20;;;8.80;69.13
59073;BME280;44859;51.934;15.554;2023-04-25T14:02:39;99013.75;;;8.76;68.85
59073;BME280;44859;51.934;15.554;2023-04-25T14:05:08;99012.95;;;8.78;68.63
59073;BME280;44859;51.934;15.554;2023-04-25T14:07:40;99013.45;;;8.85;68.76
59073;BME280;44859;51.934;15.554;2023-04-25T14:10:13;99015.77;;;8.87;67.92
59073;BME280;44859;51.934;15.554;2023-04-25T14:12:41;99013.61;;;8.89;67.54
59073;BME280;44859;51.934;15.554;2023-04-25T14:15:10;99016.88;;;8.90;67.52
59073;BME280;44859;51.934;15.554;2023-04-25T14:17:39;99017.32;;;8.88;67.75
59073;BME280;44859;51.934;15.554;2023-04-25T14:20:13;99024.30;;;8.89;67.13
59073;BME280;44859;51.934;15.554;2023-04-25T14:22:42;99023.89;;;8.93;66.37
59073;BME280;44859;51.934;15.554;2023-04-25T14:25:22;99022.17;;;8.92;66.06
59073;BME280;44859;51.934;15.554;2023-04-25T14:27:54;99024.19;;;8.91;65.83
59073;BME280;44859;51.934;15.554;2023-04-25T14:30:31;99025.14;;;8.89;65.86
59073;BME280;44859;51.934;15.554;2023-04-25T14:33:00;99026.10;;;8.97;65.41
59073;BME280;44859;51.934;15.554;2023-04-25T14:35:31;99026.55;;;9.05;64.14
59073;BME280;44859;51.934;15.554;2023-04-25T14:37:59;99030.44;;;9.08;62.57
59073;BME280;44859;51.934;15.554;2023-04-25T14:40:27;99037.95;;;9.11;62.65
59073;BME280;44859;51.934;15.554;2023-04-25T14:42:59;99037.41;;;9.18;62.07
59073;BME280;44859;51.934;15.554;2023-04-25T14:45:27;99040.27;;;9.27;62.00